SSKT weather

Aeroclube de Santa Catarina Airport
São José, Santa Catarina, Brazil

Public forecast

Using degrees Celsius for public forecast. Weather courtesy of forecast.io.

METAR (pilot weather report)

Closest report is Hercílio Luz International Airport, 7.3 nm (13.5 km) ESE. Retrieved 2019/08/24 21:00 UTC (47 minutes ago):

SBFL 242100Z 14006KT 9999 FEW047 17/11 Q1026

TAF (pilot weather forecast)

Closest forecast is Hercílio Luz International Airport, 7.3 nm (13.5 km) ESE. Retrieved 2019/08/24 18:00 UTC (4 hours ago):

TAF SBFL 240945Z 2418/2518 16012KT 9999 FEW035 TX18/2418Z TN14/2505Z BECMG 2420/2422 12006KT BECMG 2506/2508 BKN020 RMK PEB